Terminal Aerodrome Forecast
Issued by NWS

Current Version | Previous Version | Text Only | Print | Product List | Glossary On
Versions: 1 2 3 4 5 6 7 8 9 10 11 12 13 14 15 16 17 18 19 20
000
FTUS44 KOHX 291700 AAA
TAFCKV
TAF AMD
KCKV 291745Z 2918/3018 18015G25KT P6SM SCT250
     FM292000 19012G18KT P6SM BKN050 BKN250
     FM300200 23007KT 6SM -SHRA SCT025 OVC050
      TEMPO 3005/3009 4SM -SHRA BKN025 OVC050
     FM301200 34006KT P6SM SKC=

USA.gov is the U.S. government's official web portal to all federal, state and local government web resources and services.